sensor_id;sensor_type;location;lat;lon;timestamp;P1;durP1;ratioP1;P2;durP2;ratioP2
42964;SDS011;28604;51.204;22.552;2022-09-20T00:00:44;3.28;;;2.70;;
42964;SDS011;28604;51.204;22.552;2022-09-20T00:03:25;2.53;;;2.33;;
42964;SDS011;28604;51.204;22.552;2022-09-20T00:05:51;4.53;;;2.35;;
42964;SDS011;28604;51.204;22.552;2022-09-20T00:08:17;1.90;;;1.80;;
42964;SDS011;28604;51.204;22.552;2022-09-20T00:10:43;3.13;;;2.50;;
42964;SDS011;28604;51.204;22.552;2022-09-20T00:13:11;2.38;;;2.17;;
42964;SDS011;28604;51.204;22.552;2022-09-20T00:15:41;2.60;;;2.40;;
42964;SDS011;28604;51.204;22.552;2022-09-20T00:18:09;3.53;;;2.65;;
42964;SDS011;28604;51.204;22.552;2022-09-20T00:20:36;2.88;;;2.05;;
42964;SDS011;28604;51.204;22.552;2022-09-20T00:25:34;2.58;;;2.38;;
42964;SDS011;28604;51.204;22.552;2022-09-20T00:28:00;4.00;;;2.55;;
42964;SDS011;28604;51.204;22.552;2022-09-20T00:30:26;2.40;;;1.92;;
42964;SDS011;28604;51.204;22.552;2022-09-20T00:32:52;2.38;;;2.28;;
42964;SDS011;28604;51.204;22.552;2022-09-20T00:35:19;6.55;;;2.60;;
42964;SDS011;28604;51.204;22.552;2022-09-20T00:37:45;4.07;;;2.03;;
42964;SDS011;28604;51.204;22.552;2022-09-20T00:40:12;2.97;;;2.65;;
42964;SDS011;28604;51.204;22.552;2022-09-20T00:42:40;3.20;;;3.00;;
42964;SDS011;28604;51.204;22.552;2022-09-20T00:45:20;2.50;;;2.40;;
42964;SDS011;28604;51.204;22.552;2022-09-20T00:47:54;4.22;;;3.22;;
42964;SDS011;28604;51.204;22.552;2022-09-20T00:50:27;2.90;;;2.80;;
42964;SDS011;28604;51.204;22.552;2022-09-20T00:55:38;3.03;;;2.83;;
42964;SDS011;28604;51.204;22.552;2022-09-20T00:58:08;3.67;;;3.38;;
42964;SDS011;28604;51.204;22.552;2022-09-20T01:00:34;3.88;;;2.92;;
42964;SDS011;28604;51.204;22.552;2022-09-20T01:03:02;3.25;;;3.05;;
42964;SDS011;28604;51.204;22.552;2022-09-20T01:05:32;4.50;;;3.15;;
42964;SDS011;28604;51.204;22.552;2022-09-20T01:07:59;3.67;;;3.40;;
42964;SDS011;28604;51.204;22.552;2022-09-20T01:10:26;3.08;;;2.92;;
42964;SDS011;28604;51.204;22.552;2022-09-20T01:12:55;3.45;;;3.05;;
42964;SDS011;28604;51.204;22.552;2022-09-20T01:15:22;3.22;;;3.03;;
42964;SDS011;28604;51.204;22.552;2022-09-20T01:17:51;3.90;;;3.60;;
42964;SDS011;28604;51.204;22.552;2022-09-20T01:20:24;6.47;;;3.50;;
42964;SDS011;28604;51.204;22.552;2022-09-20T01:23:00;6.55;;;3.53;;
42964;SDS011;28604;51.204;22.552;2022-09-20T01:28:13;4.70;;;3.10;;
42964;SDS011;28604;51.204;22.552;2022-09-20T01:31:02;3.75;;;3.28;;
42964;SDS011;28604;51.204;22.552;2022-09-20T01:36:39;3.72;;;3.42;;
42964;SDS011;28604;51.204;22.552;2022-09-20T01:39:15;4.47;;;4.15;;
42964;SDS011;28604;51.204;22.552;2022-09-20T01:41:57;5.68;;;4.32;;
42964;SDS011;28604;51.204;22.552;2022-09-20T01:47:02;3.78;;;3.03;;
42964;SDS011;28604;51.204;22.552;2022-09-20T02:06:20;4.32;;;3.92;;
42964;SDS011;28604;51.204;22.552;2022-09-20T02:12:36;3.53;;;3.20;;
42964;SDS011;28604;51.204;22.552;2022-09-20T02:17:31;4.10;;;3.80;;
42964;SDS011;28604;51.204;22.552;2022-09-20T02:20:21;5.30;;;3.38;;
42964;SDS011;28604;51.204;22.552;2022-09-20T02:25:44;3.25;;;3.05;;
42964;SDS011;28604;51.204;22.552;2022-09-20T02:28:42;3.33;;;3.05;;
42964;SDS011;28604;51.204;22.552;2022-09-20T02:42:20;4.32;;;3.92;;
42964;SDS011;28604;51.204;22.552;2022-09-20T02:47:42;4.72;;;4.20;;
42964;SDS011;28604;51.204;22.552;2022-09-20T02:53:02;5.85;;;5.32;;
42964;SDS011;28604;51.204;22.552;2022-09-20T02:55:47;4.97;;;4.57;;
42964;SDS011;28604;51.204;22.552;2022-09-20T03:04:32;8.57;;;6.93;;
42964;SDS011;28604;51.204;22.552;2022-09-20T03:10:15;13.07;;;8.93;;
42964;SDS011;28604;51.204;22.552;2022-09-20T03:13:12;11.93;;;9.85;;
42964;SDS011;28604;51.204;22.552;2022-09-20T03:25:28;12.75;;;10.25;;
42964;SDS011;28604;51.204;22.552;2022-09-20T03:27:31;13.93;;;10.35;;
42964;SDS011;28604;51.204;22.552;2022-09-20T03:32:37;12.25;;;10.88;;
42964;SDS011;28604;51.204;22.552;2022-09-20T04:05:32;20.02;;;16.75;;
42964;SDS011;28604;51.204;22.552;2022-09-20T04:08:20;18.17;;;13.63;;
42964;SDS011;28604;51.204;22.552;2022-09-20T04:13:36;23.70;;;15.90;;
42964;SDS011;28604;51.204;22.552;2022-09-20T04:16:08;25.55;;;17.40;;
42964;SDS011;28604;51.204;22.552;2022-09-20T04:19:23;19.27;;;15.32;;
42964;SDS011;28604;51.204;22.552;2022-09-20T04:21:57;26.10;;;18.05;;
42964;SDS011;28604;51.204;22.552;2022-09-20T04:27:52;25.65;;;19.52;;
42964;SDS011;28604;51.204;22.552;2022-09-20T04:30:26;25.83;;;18.13;;
42964;SDS011;28604;51.204;22.552;2022-09-20T04:32:59;25.27;;;16.70;;
42964;SDS011;28604;51.204;22.552;2022-09-20T04:38:47;27.05;;;19.30;;
42964;SDS011;28604;51.204;22.552;2022-09-20T04:46:56;27.05;;;18.35;;
42964;SDS011;28604;51.204;22.552;2022-09-20T04:52:53;30.17;;;19.85;;
42964;SDS011;28604;51.204;22.552;2022-09-20T05:01:34;31.98;;;20.70;;
42964;SDS011;28604;51.204;22.552;2022-09-20T05:24:34;29.25;;;19.98;;
42964;SDS011;28604;51.204;22.552;2022-09-20T05:30:13;27.17;;;19.45;;
42964;SDS011;28604;51.204;22.552;2022-09-20T05:35:33;29.77;;;21.70;;
42964;SDS011;28604;51.204;22.552;2022-09-20T05:49:07;22.33;;;18.70;;
42964;SDS011;28604;51.204;22.552;2022-09-20T05:51:52;23.73;;;18.95;;
42964;SDS011;28604;51.204;22.552;2022-09-20T06:11:46;26.25;;;20.58;;
42964;SDS011;28604;51.204;22.552;2022-09-20T06:14:39;22.67;;;19.23;;
42964;SDS011;28604;51.204;22.552;2022-09-20T06:27:29;23.65;;;19.70;;
42964;SDS011;28604;51.204;22.552;2022-09-20T06:30:04;25.98;;;19.83;;
42964;SDS011;28604;51.204;22.552;2022-09-20T06:32:51;26.92;;;19.98;;
42964;SDS011;28604;51.204;22.552;2022-09-20T06:35:30;23.55;;;18.67;;
42964;SDS011;28604;51.204;22.552;2022-09-20T06:38:31;24.92;;;18.40;;
42964;SDS011;28604;51.204;22.552;2022-09-20T06:41:27;22.50;;;19.10;;
42964;SDS011;28604;51.204;22.552;2022-09-20T06:44:03;24.05;;;18.73;;
42964;SDS011;28604;51.204;22.552;2022-09-20T06:46:32;23.85;;;18.75;;
42964;SDS011;28604;51.204;22.552;2022-09-20T06:49:00;24.60;;;18.95;;
42964;SDS011;28604;51.204;22.552;2022-09-20T06:51:27;22.02;;;17.15;;
42964;SDS011;28604;51.204;22.552;2022-09-20T06:53:58;26.13;;;18.60;;
42964;SDS011;28604;51.204;22.552;2022-09-20T06:56:25;23.25;;;18.45;;
42964;SDS011;28604;51.204;22.552;2022-09-20T06:58:54;24.92;;;18.27;;
42964;SDS011;28604;51.204;22.552;2022-09-20T07:01:21;21.58;;;17.13;;
42964;SDS011;28604;51.204;22.552;2022-09-20T07:03:47;20.60;;;16.85;;
42964;SDS011;28604;51.204;22.552;2022-09-20T07:06:13;20.85;;;17.27;;
42964;SDS011;28604;51.204;22.552;2022-09-20T07:08:44;21.65;;;17.42;;
42964;SDS011;28604;51.204;22.552;2022-09-20T07:11:12;19.48;;;16.90;;
42964;SDS011;28604;51.204;22.552;2022-09-20T07:13:41;20.40;;;16.85;;
42964;SDS011;28604;51.204;22.552;2022-09-20T07:16:12;16.88;;;15.00;;
42964;SDS011;28604;51.204;22.552;2022-09-20T07:18:38;19.05;;;16.13;;
42964;SDS011;28604;51.204;22.552;2022-09-20T07:21:06;20.33;;;16.10;;
42964;SDS011;28604;51.204;22.552;2022-09-20T07:23:37;19.45;;;15.05;;
42964;SDS011;28604;51.204;22.552;2022-09-20T07:26:03;19.00;;;14.50;;
42964;SDS011;28604;51.204;22.552;2022-09-20T07:28:31;16.83;;;14.73;;
42964;SDS011;28604;51.204;22.552;2022-09-20T07:30:58;17.15;;;14.55;;
42964;SDS011;28604;51.204;22.552;2022-09-20T07:33:25;20.00;;;16.00;;
42964;SDS011;28604;51.204;22.552;2022-09-20T07:35:52;17.10;;;15.00;;
42964;SDS011;28604;51.204;22.552;2022-09-20T07:38:19;14.93;;;13.20;;
42964;SDS011;28604;51.204;22.552;2022-09-20T07:40:56;16.83;;;13.10;;
42964;SDS011;28604;51.204;22.552;2022-09-20T07:43:25;14.02;;;12.40;;
42964;SDS011;28604;51.204;22.552;2022-09-20T07:45:52;16.67;;;11.88;;
42964;SDS011;28604;51.204;22.552;2022-09-20T07:48:24;14.65;;;12.63;;
42964;SDS011;28604;51.204;22.552;2022-09-20T07:50:56;14.80;;;13.23;;
42964;SDS011;28604;51.204;22.552;2022-09-20T07:53:23;15.32;;;13.80;;
42964;SDS011;28604;51.204;22.552;2022-09-20T07:56:05;14.23;;;12.70;;
42964;SDS011;28604;51.204;22.552;2022-09-20T07:58:33;16.65;;;13.07;;
42964;SDS011;28604;51.204;22.552;2022-09-20T08:01:01;14.65;;;13.32;;
42964;SDS011;28604;51.204;22.552;2022-09-20T08:03:36;15.35;;;13.40;;
42964;SDS011;28604;51.204;22.552;2022-09-20T08:06:06;15.38;;;12.90;;
42964;SDS011;28604;51.204;22.552;2022-09-20T08:08:34;13.00;;;11.63;;
42964;SDS011;28604;51.204;22.552;2022-09-20T08:11:04;13.05;;;10.05;;
42964;SDS011;28604;51.204;22.552;2022-09-20T08:13:39;12.05;;;10.95;;
42964;SDS011;28604;51.204;22.552;2022-09-20T08:16:09;11.40;;;10.30;;
42964;SDS011;28604;51.204;22.552;2022-09-20T08:18:38;10.25;;;9.27;;
42964;SDS011;28604;51.204;22.552;2022-09-20T08:23:38;9.48;;;8.50;;
42964;SDS011;28604;51.204;22.552;2022-09-20T08:26:09;9.57;;;8.43;;
42964;SDS011;28604;51.204;22.552;2022-09-20T08:28:40;8.93;;;8.13;;
42964;SDS011;28604;51.204;22.552;2022-09-20T08:31:11;13.40;;;7.95;;
42964;SDS011;28604;51.204;22.552;2022-09-20T08:33:39;7.82;;;7.10;;
42964;SDS011;28604;51.204;22.552;2022-09-20T08:36:06;8.00;;;7.30;;
42964;SDS011;28604;51.204;22.552;2022-09-20T08:38:36;11.85;;;7.03;;
42964;SDS011;28604;51.204;22.552;2022-09-20T08:41:13;6.57;;;5.88;;
42964;SDS011;28604;51.204;22.552;2022-09-20T08:44:04;7.55;;;6.30;;
42964;SDS011;28604;51.204;22.552;2022-09-20T08:46:38;5.50;;;5.03;;
42964;SDS011;28604;51.204;22.552;2022-09-20T08:49:11;6.10;;;5.55;;
42964;SDS011;28604;51.204;22.552;2022-09-20T08:51:53;5.40;;;4.97;;
42964;SDS011;28604;51.204;22.552;2022-09-20T08:54:25;6.95;;;5.30;;
42964;SDS011;28604;51.204;22.552;2022-09-20T08:56:51;5.47;;;5.03;;
42964;SDS011;28604;51.204;22.552;2022-09-20T08:59:19;5.63;;;5.15;;
42964;SDS011;28604;51.204;22.552;2022-09-20T09:01:47;5.95;;;5.35;;
42964;SDS011;28604;51.204;22.552;2022-09-20T09:04:16;5.65;;;5.25;;
42964;SDS011;28604;51.204;22.552;2022-09-20T09:06:44;5.65;;;5.25;;
42964;SDS011;28604;51.204;22.552;2022-09-20T09:09:21;6.35;;;4.13;;
42964;SDS011;28604;51.204;22.552;2022-09-20T09:11:50;5.32;;;4.90;;
42964;SDS011;28604;51.204;22.552;2022-09-20T09:14:22;5.70;;;5.07;;
42964;SDS011;28604;51.204;22.552;2022-09-20T09:17:12;5.65;;;4.10;;
42964;SDS011;28604;51.204;22.552;2022-09-20T09:19:47;5.05;;;4.65;;
42964;SDS011;28604;51.204;22.552;2022-09-20T09:22:18;5.43;;;4.75;;
42964;SDS011;28604;51.204;22.552;2022-09-20T09:25:07;6.00;;;5.55;;
42964;SDS011;28604;51.204;22.552;2022-09-20T09:27:48;5.32;;;4.82;;
42964;SDS011;28604;51.204;22.552;2022-09-20T09:30:19;5.13;;;4.63;;
42964;SDS011;28604;51.204;22.552;2022-09-20T09:35:41;4.95;;;4.55;;
42964;SDS011;28604;51.204;22.552;2022-09-20T09:38:29;5.13;;;4.25;;
42964;SDS011;28604;51.204;22.552;2022-09-20T09:40:58;4.95;;;4.63;;
42964;SDS011;28604;51.204;22.552;2022-09-20T09:43:29;5.95;;;5.38;;
42964;SDS011;28604;51.204;22.552;2022-09-20T09:48:43;8.52;;;5.07;;
42964;SDS011;28604;51.204;22.552;2022-09-20T09:51:18;7.10;;;6.32;;
42964;SDS011;28604;51.204;22.552;2022-09-20T09:53:47;8.88;;;6.32;;
42964;SDS011;28604;51.204;22.552;2022-09-20T10:00:00;6.90;;;6.18;;
42964;SDS011;28604;51.204;22.552;2022-09-20T10:22:36;17.33;;;13.07;;
42964;SDS011;28604;51.204;22.552;2022-09-20T10:31:11;12.25;;;8.93;;
42964;SDS011;28604;51.204;22.552;2022-09-20T10:36:51;11.52;;;9.15;;
42964;SDS011;28604;51.204;22.552;2022-09-20T10:39:32;15.10;;;11.90;;
42964;SDS011;28604;51.204;22.552;2022-09-20T11:09:23;16.20;;;14.20;;
42964;SDS011;28604;51.204;22.552;2022-09-20T11:11:57;16.42;;;12.73;;
42964;SDS011;28604;51.204;22.552;2022-09-20T11:15:01;17.58;;;13.75;;
42964;SDS011;28604;51.204;22.552;2022-09-20T11:17:37;20.00;;;15.65;;
42964;SDS011;28604;51.204;22.552;2022-09-20T11:20:18;20.52;;;15.95;;
42964;SDS011;28604;51.204;22.552;2022-09-20T11:34:04;21.13;;;15.07;;
42964;SDS011;28604;51.204;22.552;2022-09-20T11:36:38;15.25;;;11.95;;
42964;SDS011;28604;51.204;22.552;2022-09-20T11:42:16;11.75;;;10.07;;
42964;SDS011;28604;51.204;22.552;2022-09-20T11:44:46;12.80;;;10.07;;
42964;SDS011;28604;51.204;22.552;2022-09-20T11:47:14;14.02;;;9.75;;
42964;SDS011;28604;51.204;22.552;2022-09-20T11:49:47;9.02;;;8.07;;
42964;SDS011;28604;51.204;22.552;2022-09-20T11:57:42;5.82;;;4.88;;
42964;SDS011;28604;51.204;22.552;2022-09-20T12:00:08;5.30;;;4.80;;
42964;SDS011;28604;51.204;22.552;2022-09-20T12:05:47;16.90;;;4.53;;
42964;SDS011;28604;51.204;22.552;2022-09-20T12:08:52;5.32;;;4.82;;
42964;SDS011;28604;51.204;22.552;2022-09-20T12:11:06;5.90;;;5.38;;
42964;SDS011;28604;51.204;22.552;2022-09-20T12:13:39;7.18;;;5.57;;
42964;SDS011;28604;51.204;22.552;2022-09-20T12:16:16;6.27;;;5.77;;
42964;SDS011;28604;51.204;22.552;2022-09-20T12:24:32;6.47;;;5.82;;
42964;SDS011;28604;51.204;22.552;2022-09-20T12:27:01;5.18;;;4.82;;
42964;SDS011;28604;51.204;22.552;2022-09-20T12:30:14;4.68;;;4.38;;
42964;SDS011;28604;51.204;22.552;2022-09-20T12:43:23;6.32;;;4.13;;
42964;SDS011;28604;51.204;22.552;2022-09-20T12:45:51;4.70;;;4.15;;
42964;SDS011;28604;51.204;22.552;2022-09-20T12:48:19;6.88;;;5.70;;
42964;SDS011;28604;51.204;22.552;2022-09-20T12:51:01;4.40;;;4.15;;
42964;SDS011;28604;51.204;22.552;2022-09-20T12:54:01;5.18;;;4.78;;
42964;SDS011;28604;51.204;22.552;2022-09-20T12:56:33;5.07;;;4.68;;
42964;SDS011;28604;51.204;22.552;2022-09-20T12:59:01;5.22;;;4.68;;
42964;SDS011;28604;51.204;22.552;2022-09-20T13:01:34;5.63;;;5.13;;
42964;SDS011;28604;51.204;22.552;2022-09-20T13:07:25;7.22;;;4.50;;
42964;SDS011;28604;51.204;22.552;2022-09-20T13:12:41;3.88;;;3.67;;
42964;SDS011;28604;51.204;22.552;2022-09-20T13:15:10;3.63;;;3.28;;
42964;SDS011;28604;51.204;22.552;2022-09-20T13:17:43;3.95;;;3.58;;
42964;SDS011;28604;51.204;22.552;2022-09-20T13:20:30;3.65;;;3.05;;
42964;SDS011;28604;51.204;22.552;2022-09-20T13:23:00;4.25;;;3.85;;
42964;SDS011;28604;51.204;22.552;2022-09-20T13:25:29;3.13;;;2.97;;
42964;SDS011;28604;51.204;22.552;2022-09-20T13:30:34;2.25;;;2.08;;
42964;SDS011;28604;51.204;22.552;2022-09-20T13:33:20;2.75;;;2.55;;
42964;SDS011;28604;51.204;22.552;2022-09-20T13:35:49;2.58;;;2.40;;
42964;SDS011;28604;51.204;22.552;2022-09-20T13:38:18;2.47;;;2.30;;
42964;SDS011;28604;51.204;22.552;2022-09-20T13:40:48;3.55;;;1.58;;
42964;SDS011;28604;51.204;22.552;2022-09-20T13:43:19;1.13;;;1.13;;
42964;SDS011;28604;51.204;22.552;2022-09-20T13:46:06;1.10;;;1.10;;
42964;SDS011;28604;51.204;22.552;2022-09-20T13:48:33;1.05;;;0.95;;
42964;SDS011;28604;51.204;22.552;2022-09-20T13:50:59;0.65;;;0.65;;
42964;SDS011;28604;51.204;22.552;2022-09-20T13:53:27;0.70;;;0.70;;
42964;SDS011;28604;51.204;22.552;2022-09-20T13:55:57;1.63;;;0.68;;
42964;SDS011;28604;51.204;22.552;2022-09-20T13:58:28;1.67;;;0.50;;
42964;SDS011;28604;51.204;22.552;2022-09-20T14:00:57;0.57;;;0.30;;
42964;SDS011;28604;51.204;22.552;2022-09-20T14:03:30;3.33;;;2.55;;
42964;SDS011;28604;51.204;22.552;2022-09-20T14:05:59;1.25;;;1.25;;
42964;SDS011;28604;51.204;22.552;2022-09-20T14:08:50;1.00;;;0.47;;
42964;SDS011;28604;51.204;22.552;2022-09-20T14:11:17;0.40;;;0.40;;
42964;SDS011;28604;51.204;22.552;2022-09-20T14:13:48;2.28;;;1.20;;
42964;SDS011;28604;51.204;22.552;2022-09-20T14:16:16;0.27;;;0.27;;
42964;SDS011;28604;51.204;22.552;2022-09-20T14:18:44;0.82;;;0.30;;
42964;SDS011;28604;51.204;22.552;2022-09-20T14:21:13;2.47;;;0.55;;
42964;SDS011;28604;51.204;22.552;2022-09-20T14:23:53;1.90;;;0.30;;
42964;SDS011;28604;51.204;22.552;2022-09-20T14:26:38;1.80;;;0.80;;
42964;SDS011;28604;51.204;22.552;2022-09-20T14:31:55;1.63;;;0.88;;
42964;SDS011;28604;51.204;22.552;2022-09-20T14:34:24;1.58;;;0.70;;
42964;SDS011;28604;51.204;22.552;2022-09-20T14:36:56;2.28;;;1.13;;
42964;SDS011;28604;51.204;22.552;2022-09-20T14:39:29;1.48;;;1.25;;
42964;SDS011;28604;51.204;22.552;2022-09-20T14:41:56;2.80;;;1.30;;
42964;SDS011;28604;51.204;22.552;2022-09-20T14:44:28;1.90;;;1.33;;
42964;SDS011;28604;51.204;22.552;2022-09-20T14:46:56;1.13;;;1.13;;
42964;SDS011;28604;51.204;22.552;2022-09-20T14:51:52;1.98;;;1.67;;
42964;SDS011;28604;51.204;22.552;2022-09-20T14:54:39;1.38;;;1.38;;
42964;SDS011;28604;51.204;22.552;2022-09-20T14:57:08;3.47;;;2.17;;
42964;SDS011;28604;51.204;22.552;2022-09-20T14:59:35;2.45;;;2.03;;
42964;SDS011;28604;51.204;22.552;2022-09-20T15:02:07;3.90;;;2.03;;
42964;SDS011;28604;51.204;22.552;2022-09-20T15:04:38;3.65;;;2.10;;
42964;SDS011;28604;51.204;22.552;2022-09-20T15:07:07;2.92;;;1.60;;
42964;SDS011;28604;51.204;22.552;2022-09-20T15:09:37;4.03;;;1.77;;
42964;SDS011;28604;51.204;22.552;2022-09-20T15:12:04;1.55;;;1.20;;
42964;SDS011;28604;51.204;22.552;2022-09-20T15:14:35;8.18;;;6.82;;
42964;SDS011;28604;51.204;22.552;2022-09-20T15:17:01;7.90;;;5.88;;
42964;SDS011;28604;51.204;22.552;2022-09-20T15:19:27;3.20;;;2.63;;
42964;SDS011;28604;51.204;22.552;2022-09-20T15:21:55;1.30;;;1.17;;
42964;SDS011;28604;51.204;22.552;2022-09-20T15:24:21;1.20;;;1.20;;
42964;SDS011;28604;51.204;22.552;2022-09-20T15:26:47;0.80;;;0.80;;
42964;SDS011;28604;51.204;22.552;2022-09-20T15:29:15;1.08;;;1.00;;
42964;SDS011;28604;51.204;22.552;2022-09-20T15:31:42;3.95;;;1.00;;
42964;SDS011;28604;51.204;22.552;2022-09-20T15:34:11;1.05;;;1.05;;
42964;SDS011;28604;51.204;22.552;2022-09-20T15:36:38;0.70;;;0.70;;
42964;SDS011;28604;51.204;22.552;2022-09-20T15:39:04;1.50;;;1.50;;
42964;SDS011;28604;51.204;22.552;2022-09-20T15:41:31;1.50;;;1.40;;
42964;SDS011;28604;51.204;22.552;2022-09-20T15:43:57;1.70;;;1.55;;
42964;SDS011;28604;51.204;22.552;2022-09-20T15:46:24;1.23;;;1.17;;
42964;SDS011;28604;51.204;22.552;2022-09-20T15:48:54;2.03;;;1.92;;
42964;SDS011;28604;51.204;22.552;2022-09-20T15:51:25;2.00;;;1.90;;
42964;SDS011;28604;51.204;22.552;2022-09-20T15:53:56;1.48;;;1.38;;
42964;SDS011;28604;51.204;22.552;2022-09-20T15:56:28;1.63;;;1.50;;
42964;SDS011;28604;51.204;22.552;2022-09-20T15:58:57;1.80;;;1.38;;
42964;SDS011;28604;51.204;22.552;2022-09-20T16:01:26;1.40;;;1.30;;
42964;SDS011;28604;51.204;22.552;2022-09-20T16:03:54;3.95;;;1.35;;
42964;SDS011;28604;51.204;22.552;2022-09-20T16:06:21;1.60;;;1.50;;
42964;SDS011;28604;51.204;22.552;2022-09-20T16:08:48;5.95;;;4.50;;
42964;SDS011;28604;51.204;22.552;2022-09-20T16:11:15;5.35;;;3.63;;
42964;SDS011;28604;51.204;22.552;2022-09-20T16:13:45;2.53;;;2.00;;
42964;SDS011;28604;51.204;22.552;2022-09-20T16:16:16;4.10;;;2.47;;
42964;SDS011;28604;51.204;22.552;2022-09-20T16:18:42;6.10;;;2.97;;
42964;SDS011;28604;51.204;22.552;2022-09-20T16:21:27;6.10;;;2.95;;
42964;SDS011;28604;51.204;22.552;2022-09-20T16:23:54;4.60;;;3.08;;
42964;SDS011;28604;51.204;22.552;2022-09-20T16:26:21;5.93;;;3.40;;
42964;SDS011;28604;51.204;22.552;2022-09-20T16:28:50;4.43;;;4.03;;
42964;SDS011;28604;51.204;22.552;2022-09-20T16:34:14;3.58;;;3.00;;
42964;SDS011;28604;51.204;22.552;2022-09-20T16:36:47;8.52;;;2.97;;
42964;SDS011;28604;51.204;22.552;2022-09-20T16:39:16;6.80;;;4.60;;
42964;SDS011;28604;51.204;22.552;2022-09-20T16:41:46;10.57;;;9.55;;
42964;SDS011;28604;51.204;22.552;2022-09-20T16:44:13;14.27;;;11.43;;
42964;SDS011;28604;51.204;22.552;2022-09-20T16:46:40;10.38;;;8.95;;
42964;SDS011;28604;51.204;22.552;2022-09-20T16:49:07;7.70;;;6.93;;
42964;SDS011;28604;51.204;22.552;2022-09-20T16:51:36;10.23;;;5.78;;
42964;SDS011;28604;51.204;22.552;2022-09-20T16:54:08;5.22;;;4.72;;
42964;SDS011;28604;51.204;22.552;2022-09-20T16:56:37;5.63;;;4.78;;
42964;SDS011;28604;51.204;22.552;2022-09-20T16:59:09;5.32;;;4.50;;
42964;SDS011;28604;51.204;22.552;2022-09-20T17:01:35;5.00;;;4.50;;
42964;SDS011;28604;51.204;22.552;2022-09-20T17:04:03;6.22;;;4.90;;
42964;SDS011;28604;51.204;22.552;2022-09-20T17:06:30;4.38;;;3.97;;
42964;SDS011;28604;51.204;22.552;2022-09-20T17:08:58;4.00;;;3.60;;
42964;SDS011;28604;51.204;22.552;2022-09-20T17:11:26;3.95;;;3.72;;
42964;SDS011;28604;51.204;22.552;2022-09-20T17:13:54;3.95;;;3.65;;
42964;SDS011;28604;51.204;22.552;2022-09-20T17:16:22;4.32;;;3.88;;
42964;SDS011;28604;51.204;22.552;2022-09-20T17:18:54;8.07;;;3.50;;
42964;SDS011;28604;51.204;22.552;2022-09-20T17:21:30;4.05;;;3.78;;
42964;SDS011;28604;51.204;22.552;2022-09-20T17:23:56;6.53;;;4.90;;
42964;SDS011;28604;51.204;22.552;2022-09-20T17:26:27;4.55;;;4.03;;
42964;SDS011;28604;51.204;22.552;2022-09-20T17:28:59;4.32;;;3.92;;
42964;SDS011;28604;51.204;22.552;2022-09-20T17:31:28;5.90;;;4.15;;
42964;SDS011;28604;51.204;22.552;2022-09-20T17:33:56;4.93;;;4.22;;
42964;SDS011;28604;51.204;22.552;2022-09-20T17:36:25;4.20;;;3.90;;
42964;SDS011;28604;51.204;22.552;2022-09-20T17:38:53;5.93;;;3.72;;
42964;SDS011;28604;51.204;22.552;2022-09-20T17:41:21;6.85;;;5.40;;
42964;SDS011;28604;51.204;22.552;2022-09-20T17:43:53;5.82;;;5.22;;
42964;SDS011;28604;51.204;22.552;2022-09-20T17:46:21;5.90;;;5.13;;
42964;SDS011;28604;51.204;22.552;2022-09-20T17:48:56;6.70;;;6.10;;
42964;SDS011;28604;51.204;22.552;2022-09-20T17:51:26;6.50;;;5.57;;
42964;SDS011;28604;51.204;22.552;2022-09-20T17:53:53;8.60;;;6.32;;
42964;SDS011;28604;51.204;22.552;2022-09-20T17:56:24;10.75;;;6.43;;
42964;SDS011;28604;51.204;22.552;2022-09-20T17:58:58;10.98;;;6.93;;
42964;SDS011;28604;51.204;22.552;2022-09-20T18:01:29;14.73;;;7.97;;
42964;SDS011;28604;51.204;22.552;2022-09-20T18:03:58;8.60;;;6.60;;
42964;SDS011;28604;51.204;22.552;2022-09-20T18:06:26;13.27;;;8.27;;
42964;SDS011;28604;51.204;22.552;2022-09-20T18:08:55;9.07;;;7.18;;
42964;SDS011;28604;51.204;22.552;2022-09-20T18:14:04;11.18;;;7.80;;
42964;SDS011;28604;51.204;22.552;2022-09-20T18:16:32;8.82;;;6.75;;
42964;SDS011;28604;51.204;22.552;2022-09-20T18:18:59;9.18;;;6.75;;
42964;SDS011;28604;51.204;22.552;2022-09-20T18:21:27;14.48;;;8.98;;
42964;SDS011;28604;51.204;22.552;2022-09-20T18:23:54;10.65;;;7.10;;
42964;SDS011;28604;51.204;22.552;2022-09-20T18:26:25;10.65;;;7.20;;
42964;SDS011;28604;51.204;22.552;2022-09-20T18:31:35;9.75;;;6.50;;
42964;SDS011;28604;51.204;22.552;2022-09-20T18:34:06;11.60;;;8.35;;
42964;SDS011;28604;51.204;22.552;2022-09-20T18:36:36;13.02;;;8.63;;
42964;SDS011;28604;51.204;22.552;2022-09-20T18:39:04;13.50;;;7.68;;
42964;SDS011;28604;51.204;22.552;2022-09-20T18:41:32;12.73;;;7.55;;
42964;SDS011;28604;51.204;22.552;2022-09-20T18:44:00;10.25;;;6.80;;
42964;SDS011;28604;51.204;22.552;2022-09-20T18:46:28;9.02;;;7.00;;
42964;SDS011;28604;51.204;22.552;2022-09-20T18:48:56;10.00;;;6.10;;
42964;SDS011;28604;51.204;22.552;2022-09-20T18:51:29;13.48;;;6.65;;
42964;SDS011;28604;51.204;22.552;2022-09-20T18:53:56;7.40;;;6.18;;
42964;SDS011;28604;51.204;22.552;2022-09-20T18:56:24;7.30;;;5.47;;
42964;SDS011;28604;51.204;22.552;2022-09-20T18:58:53;9.75;;;6.78;;
42964;SDS011;28604;51.204;22.552;2022-09-20T19:07:15;7.53;;;5.38;;
42964;SDS011;28604;51.204;22.552;2022-09-20T19:10:05;8.93;;;4.55;;
42964;SDS011;28604;51.204;22.552;2022-09-20T19:26:25;10.85;;;6.85;;
42964;SDS011;28604;51.204;22.552;2022-09-20T19:28:53;7.68;;;6.80;;
42964;SDS011;28604;51.204;22.552;2022-09-20T19:31:31;12.05;;;8.38;;
42964;SDS011;28604;51.204;22.552;2022-09-20T19:33:59;11.32;;;6.85;;
42964;SDS011;28604;51.204;22.552;2022-09-20T19:39:02;10.73;;;6.90;;
42964;SDS011;28604;51.204;22.552;2022-09-20T19:41:46;7.50;;;6.50;;
42964;SDS011;28604;51.204;22.552;2022-09-20T19:44:26;8.30;;;6.80;;
42964;SDS011;28604;51.204;22.552;2022-09-20T19:52:13;8.00;;;6.63;;
42964;SDS011;28604;51.204;22.552;2022-09-20T19:54:39;7.35;;;5.72;;
42964;SDS011;28604;51.204;22.552;2022-09-20T19:57:11;10.45;;;5.82;;
42964;SDS011;28604;51.204;22.552;2022-09-20T19:59:48;4.85;;;4.32;;
42964;SDS011;28604;51.204;22.552;2022-09-20T20:02:15;6.40;;;5.00;;
42964;SDS011;28604;51.204;22.552;2022-09-20T20:04:42;7.93;;;4.40;;
42964;SDS011;28604;51.204;22.552;2022-09-20T20:07:13;5.15;;;3.78;;
42964;SDS011;28604;51.204;22.552;2022-09-20T20:12:54;4.65;;;3.30;;
42964;SDS011;28604;51.204;22.552;2022-09-20T20:16:00;4.50;;;3.90;;
42964;SDS011;28604;51.204;22.552;2022-09-20T20:21:01;3.80;;;3.30;;
42964;SDS011;28604;51.204;22.552;2022-09-20T20:23:42;3.47;;;3.15;;
42964;SDS011;28604;51.204;22.552;2022-09-20T20:26:22;5.85;;;3.13;;
42964;SDS011;28604;51.204;22.552;2022-09-20T20:28:50;4.75;;;2.83;;
42964;SDS011;28604;51.204;22.552;2022-09-20T20:31:20;4.03;;;3.40;;
42964;SDS011;28604;51.204;22.552;2022-09-20T20:33:47;8.48;;;3.33;;
42964;SDS011;28604;51.204;22.552;2022-09-20T20:36:14;5.72;;;3.40;;
42964;SDS011;28604;51.204;22.552;2022-09-20T20:38:41;6.32;;;3.17;;
42964;SDS011;28604;51.204;22.552;2022-09-20T20:41:14;6.53;;;4.25;;
42964;SDS011;28604;51.204;22.552;2022-09-20T20:43:43;6.15;;;3.33;;
42964;SDS011;28604;51.204;22.552;2022-09-20T20:46:13;3.85;;;3.47;;
42964;SDS011;28604;51.204;22.552;2022-09-20T20:48:43;4.70;;;3.00;;
42964;SDS011;28604;51.204;22.552;2022-09-20T20:51:11;5.50;;;3.88;;
42964;SDS011;28604;51.204;22.552;2022-09-20T20:53:47;5.47;;;4.22;;
42964;SDS011;28604;51.204;22.552;2022-09-20T20:56:19;4.40;;;3.97;;